Impacts TAF Board
For situational awareness. Not to be used for flight planning purposes.
IDs:

KLFK - Lufkin/Angelina Cnty, TX, US

Issued at 2340 UTC 05 Dec 2019
Updated at 0131 UTC 06 Dec 2019
Potential Impact None Slight Moderate High
Time0053Z 06/02Z 06/03Z 06/04Z 06/05Z 06/06Z 06/07Z 06/08Z 06/09Z 06/10Z 06/11Z 06/12Z 06/13Z 06/14Z>>
Type OBS PRVL PRVL PRVL PRVL PRVL PRVL PRVL PRVL PRVL PRVL PRVL PRVL PRVL
VIS 10 >6 >6 >6 >6 >6 >6 >6 >6 >6 >6 >6 >6 >6
CIG -- 100 100 100 100 15 15 15 15 15 15 15 15 15
Cover CLR BKN BKN BKN BKN OVC OVC OVC OVC OVC BKN BKN BKN BKN
FltCat VFR VFR VFR VFR VFR MVFR MVFR MVFR MVFR MVFR MVFR MVFR MVFR MVFR
WX -- -- -- -- -- -- -- -- -- -- -- -- -- --
WDir 160 160 160 160 160 170 170 170 170 170 210 210 210 210
WSpd 8 8 8 8 8 7 7 7 7 7 8 8 8 8
WGst -- -- -- -- -- -- -- -- -- -- -- -- -- --
Raw TAF
KLFK 052340Z 0600/0624 16008KT P6SM SCT035 BKN100
  FM060600 17007KT P6SM BKN015 OVC080
  FM061100 21008KT P6SM BKN015
  FM061700 30010KT P6SM BKN015


Raw METAR
KLFK 060053Z AUTO 16008KT 10SM CLR 17/13 A2998 RMK AO2 SLP151 T01720133
KLFK 052353Z AUTO 16006KT 10SM CLR 18/13 A2997 RMK AO2 SLP146 T01780133 10233 20172 55002
KLFK 052253Z AUTO 16004KT 10SM CLR 19/13 A2997 RMK AO2 SLP145 T01940128

METAR Board
Radar Display
Forecast Discussion
For situational awareness. Not to be used for flight planning purposes.